Time;durP1;ratioP1;P1;durP2;ratioP2;P2;SDS_P1;SDS_P2;PMS_P1;PMS_P2;Temp;Humidity;BMP_temperature;BMP_pressure;BME280_temperature;BME280_humidity;BME280_pressure;Samples;Min_cycle;Max_cycle;Signal;HPM_P1;HPM_P2
2022/04/24 00:02:22;;;;;;;16.67;8.75;;;8.20;99.90;;;;;;5067579;28;20051;-60
2022/04/24 00:04:50;;;;;;;23.08;10.80;;;8.20;99.90;;;;;;5070564;28;20503;-60
2022/04/24 00:07:18;;;;;;;22.80;9.30;;;8.10;99.90;;;;;;5069407;28;20037;-60
2022/04/24 00:09:46;;;;;;;16.13;8.35;;;8.10;99.90;;;;;;5070371;28;20099;-60
2022/04/24 00:12:16;;;;;;;17.95;8.95;;;8.10;99.90;;;;;;5064553;28;20056;-60
2022/04/24 00:14:47;;;;;;;;;;;8.10;99.90;;;;;;5052415;28;20480;-60
2022/04/24 00:17:16;;;;;;;16.30;8.57;;;8.00;99.90;;;;;;5048882;28;19924;-60
2022/04/24 00:19:44;;;;;;;23.52;11.75;;;8.00;99.90;;;;;;5068256;28;20044;-60
2022/04/24 00:22:12;;;;;;;18.83;8.57;;;8.00;99.90;;;;;;5067123;28;20051;-60
2022/04/24 00:24:40;;;;;;;21.92;9.45;;;8.00;99.90;;;;;;5031819;28;21734;-60
2022/04/24 00:27:08;;;;;;;18.83;8.40;;;8.00;99.90;;;;;;5050014;28;20049;-60
2022/04/24 00:29:36;;;;;;;29.92;9.45;;;7.90;99.90;;;;;;5067029;28;20048;-60
2022/04/24 00:32:05;;;;;;;19.23;9.52;;;7.90;99.90;;;;;;5069166;28;20056;-59
2022/04/24 00:34:33;;;;;;;20.48;9.25;;;7.90;99.90;;;;;;5068084;28;20049;-59
2022/04/24 00:37:00;;;;;;;21.52;8.57;;;7.90;99.90;;;;;;5070170;28;20036;-60
2022/04/24 00:39:28;;;;;;;16.85;7.68;;;7.90;99.90;;;;;;5069741;28;20044;-60
2022/04/24 00:41:56;;;;;;;17.95;8.43;;;7.90;99.90;;;;;;5067257;28;20047;-60
2022/04/24 00:44:23;;;;;;;17.25;8.30;;;7.90;99.90;;;;;;5050031;28;20049;-59
2022/04/24 00:47:02;;;;;;;20.50;9.05;;;7.90;99.90;;;;;;5049939;28;20049;-59
2022/04/24 00:49:30;;;;;;;20.48;8.23;;;7.90;99.90;;;;;;5065646;28;20377;-60
2022/04/24 00:51:58;;;;;;;19.08;8.40;;;7.80;99.90;;;;;;5052078;28;20048;-60
2022/04/24 00:54:25;;;;;;;19.40;8.65;;;7.90;99.90;;;;;;5053598;28;20373;-59
2022/04/24 00:56:53;;;;;;;23.23;8.50;;;7.90;99.90;;;;;;5050024;28;20428;-60
2022/04/24 00:59:21;;;;;;;22.30;8.90;;;7.80;99.90;;;;;;5064378;28;20032;-60
2022/04/24 01:01:51;;;;;;;31.10;9.90;;;7.80;99.90;;;;;;5065346;28;20052;-61
2022/04/24 01:04:19;;;;;;;16.83;8.68;;;7.80;99.90;;;;;;5059316;28;20460;-61
2022/04/24 01:06:47;;;;;;;20.85;9.05;;;7.70;99.90;;;;;;5047393;28;20051;-61
2022/04/24 01:09:20;;;;;;;17.55;9.57;;;7.80;99.90;;;;;;5062054;28;20048;-60
2022/04/24 01:11:51;;;;;;;19.55;9.73;;;7.70;99.90;;;;;;5069759;28;20102;-64
2022/04/24 01:14:21;;;;;;;26.48;9.65;;;7.80;99.90;;;;;;5051000;28;20056;-60
2022/04/24 01:16:49;;;;;;;25.35;9.63;;;7.80;99.90;;;;;;5048483;28;20059;-60
2022/04/24 01:19:17;;;;;;;21.00;9.80;;;7.70;99.90;;;;;;5063517;28;20036;-60
2022/04/24 01:21:47;;;;;;;23.17;11.13;;;7.70;99.90;;;;;;5069640;28;20044;-62
2022/04/24 01:24:16;;;;;;;24.23;9.93;;;7.70;99.90;;;;;;5065317;28;20045;-61
2022/04/24 01:26:45;;;;;;;20.75;9.68;;;7.70;99.90;;;;;;5068196;28;20044;-61
2022/04/24 01:29:14;;;;;;;22.75;8.23;;;7.70;99.90;;;;;;5068964;28;20051;-61
2022/04/24 01:31:47;;;;;;;19.02;9.32;;;7.70;99.90;;;;;;5055819;28;20508;-61
2022/04/24 01:34:19;;;;;;;17.17;8.90;;;7.60;99.90;;;;;;5048479;28;20045;-61
2022/04/24 01:36:48;;;;;;;18.38;8.68;;;7.70;99.90;;;;;;5071077;28;20476;-61
2022/04/24 01:39:16;;;;;;;25.60;10.00;;;7.70;99.90;;;;;;5070968;28;20381;-62
2022/04/24 01:41:45;;;;;;;20.50;7.78;;;7.70;99.90;;;;;;5061314;28;20040;-62
2022/04/24 01:44:12;;;;;;;18.20;8.23;;;7.60;99.90;;;;;;5065506;28;20384;-61
2022/04/24 01:46:40;;;;;;;23.33;8.43;;;7.60;99.90;;;;;;5067996;28;20047;-62
2022/04/24 01:49:08;;;;;;;19.27;7.93;;;7.60;99.90;;;;;;5070967;28;20600;-61
2022/04/24 01:51:35;;;;;;;18.23;8.57;;;7.60;99.90;;;;;;5071099;28;20045;-62
2022/04/24 01:54:03;;;;;;;30.60;9.55;;;7.60;99.90;;;;;;5065803;28;20409;-64
2022/04/24 01:56:30;;;;;;;22.90;8.93;;;7.70;99.90;;;;;;5071165;28;20048;-59
2022/04/24 01:58:58;;;;;;;17.90;8.43;;;7.60;99.90;;;;;;5070372;28;20044;-62
2022/04/24 02:01:26;;;;;;;19.70;8.25;;;7.60;99.90;;;;;;5069474;28;20045;-65
2022/04/24 02:03:53;;;;;;;17.92;7.40;;;7.60;99.90;;;;;;5069570;28;20044;-64
2022/04/24 02:06:21;;;;;;;23.30;8.57;;;7.60;99.90;;;;;;5070512;28;20056;-62
2022/04/24 02:08:49;;;;;;;16.05;7.35;;;7.60;99.90;;;;;;5070794;28;20041;-61
2022/04/24 02:11:16;;;;;;;26.55;7.82;;;7.60;99.90;;;;;;5070953;28;20048;-61
2022/04/24 02:13:45;;;;;;;28.95;9.80;;;7.60;99.90;;;;;;5071358;28;20040;-62
2022/04/24 02:16:12;;;;;;;17.73;6.82;;;7.60;99.90;;;;;;5073315;28;20500;-60
2022/04/24 02:18:40;;;;;;;17.45;7.22;;;7.60;99.90;;;;;;5074494;28;20040;-60
2022/04/24 02:21:10;;;;;;;17.98;7.35;;;7.50;99.90;;;;;;5074164;28;20075;-60
2022/04/24 02:23:37;;;;;;;22.60;8.23;;;7.50;99.90;;;;;;5074384;28;20041;-60
2022/04/24 02:26:05;;;;;;;17.85;6.95;;;7.60;99.90;;;;;;5072971;28;20507;-60
2022/04/24 02:28:32;;;;;;;26.95;8.80;;;7.50;99.90;;;;;;5074338;28;20476;-60
2022/04/24 02:31:00;;;;;;;19.67;7.28;;;7.50;99.90;;;;;;5073946;28;20064;-60
2022/04/24 02:33:27;;;;;;;18.10;7.88;;;7.50;99.90;;;;;;5073940;28;20044;-60
2022/04/24 02:35:55;;;;;;;18.55;7.93;;;7.50;99.90;;;;;;5074074;28;20041;-60
2022/04/24 02:38:23;;;;;;;18.73;7.60;;;7.50;99.90;;;;;;5074052;28;20123;-60
2022/04/24 02:40:50;;;;;;;25.55;7.57;;;7.50;99.90;;;;;;5073918;28;20045;-60
2022/04/24 02:43:18;;;;;;;21.52;7.25;;;7.50;99.90;;;;;;5073975;28;20044;-60
2022/04/24 02:45:46;;;;;;;21.45;7.95;;;7.50;99.90;;;;;;5073859;28;20063;-60
2022/04/24 02:48:14;;;;;;;24.40;7.45;;;7.50;99.90;;;;;;5074101;28;20037;-60
2022/04/24 02:50:41;;;;;;;21.88;8.10;;;7.50;99.90;;;;;;5073980;28;20053;-60
2022/04/24 02:53:10;;;;;;;15.27;6.63;;;7.50;99.90;;;;;;5073709;28;20487;-60
2022/04/24 02:55:38;;;;;;;18.77;8.00;;;7.50;99.90;;;;;;5073731;28;20048;-61
2022/04/24 02:58:06;;;;;;;20.65;7.15;;;7.50;99.90;;;;;;5073804;28;20048;-60
2022/04/24 03:00:41;;;;;;;17.65;7.20;;;7.50;99.90;;;;;;5073727;28;20047;-61
2022/04/24 03:03:09;;;;;;;26.83;7.13;;;7.50;99.90;;;;;;5073715;28;20057;-60
2022/04/24 03:05:37;;;;;;;19.27;6.25;;;7.50;99.90;;;;;;5072056;28;20053;-61
2022/04/24 03:08:05;;;;;;;27.55;6.75;;;7.50;99.90;;;;;;5073356;28;20381;-61
2022/04/24 03:10:33;;;;;;;13.77;7.75;;;7.50;99.90;;;;;;5073500;28;20385;-60
2022/04/24 03:13:00;;;;;;;20.67;7.30;;;7.50;99.90;;;;;;5073230;28;20488;-60
2022/04/24 03:15:28;;;;;;;18.20;7.00;;;7.50;99.90;;;;;;5056006;28;20052;-60
2022/04/24 03:17:55;;;;;;;24.08;7.68;;;7.50;99.90;;;;;;5053521;28;20052;-60
2022/04/24 03:20:23;;;;;;;24.45;6.50;;;7.40;99.90;;;;;;5053134;28;20056;-60
2022/04/24 03:22:51;;;;;;;20.83;7.20;;;7.40;99.90;;;;;;5051956;28;20041;-60
2022/04/24 03:25:19;;;;;;;21.10;7.70;;;7.40;99.90;;;;;;5051071;28;20401;-60
2022/04/24 03:27:46;;;;;;;20.35;7.15;;;7.40;99.90;;;;;;5053028;28;20404;-61
2022/04/24 03:30:14;;;;;;;15.18;7.25;;;7.30;99.90;;;;;;5052971;28;20060;-60
2022/04/24 03:32:42;;;;;;;18.17;7.75;;;7.20;99.90;;;;;;5052833;28;20053;-61
2022/04/24 03:35:11;;;;;;;17.95;7.68;;;7.20;99.90;;;;;;5053214;28;20493;-60
2022/04/24 03:37:39;;;;;;;20.52;6.80;;;7.10;99.90;;;;;;5052916;28;20049;-60
2022/04/24 03:40:08;;;;;;;18.48;6.55;;;7.10;99.90;;;;;;5052846;28;20037;-60
2022/04/24 03:42:36;;;;;;;15.60;6.78;;;7.00;99.90;;;;;;5052712;28;20518;-60
2022/04/24 03:45:06;;;;;;;18.98;6.50;;;7.00;99.90;;;;;;5051418;28;20041;-62
2022/04/24 03:47:34;;;;;;;13.68;6.07;;;7.00;99.90;;;;;;5052659;28;20377;-60
2022/04/24 03:50:02;;;;;;;18.92;6.70;;;7.00;99.90;;;;;;5052809;28;20045;-60
2022/04/24 03:52:30;;;;;;;16.63;6.43;;;7.00;99.90;;;;;;5052577;28;20049;-60
2022/04/24 03:54:58;;;;;;;22.60;7.70;;;6.90;99.90;;;;;;5052635;28;20049;-60
2022/04/24 03:57:25;;;;;;;23.02;7.00;;;6.90;99.90;;;;;;5052716;28;20388;-61
2022/04/24 03:59:53;;;;;;;17.65;6.85;;;6.80;99.90;;;;;;5052675;28;20055;-61
2022/04/24 04:02:21;;;;;;;18.52;6.63;;;6.80;99.90;;;;;;5052538;28;20037;-60
2022/04/24 04:04:48;;;;;;;26.10;6.65;;;6.80;99.90;;;;;;5052586;28;20488;-60
2022/04/24 04:07:16;;;;;;;18.15;6.32;;;6.90;99.90;;;;;;5052453;28;20056;-60
2022/04/24 04:09:44;;;;;;;15.15;5.97;;;6.90;99.90;;;;;;5052361;28;20045;-61
2022/04/24 04:12:12;;;;;;;23.42;6.72;;;6.90;99.90;;;;;;5052301;28;20052;-61
2022/04/24 04:14:39;;;;;;;23.88;6.00;;;6.90;99.90;;;;;;5052271;28;20361;-61
2022/04/24 04:17:09;;;;;;;13.60;6.10;;;6.90;99.90;;;;;;5052234;28;20049;-61
2022/04/24 04:19:36;;;;;;;21.27;6.13;;;6.90;99.90;;;;;;5052218;28;20048;-61
2022/04/24 04:22:04;;;;;;;22.25;6.00;;;6.90;99.90;;;;;;5050885;28;20060;-61
2022/04/24 04:24:32;;;;;;;19.98;5.80;;;6.90;99.90;;;;;;5052026;28;20045;-63
2022/04/24 04:27:00;;;;;;;21.40;6.35;;;6.90;99.90;;;;;;5052003;28;20045;-64
2022/04/24 04:29:27;;;;;;;18.30;5.47;;;6.80;99.90;;;;;;5052018;28;20045;-65
2022/04/24 04:32:02;;;;;;;13.63;4.95;;;6.80;99.90;;;;;;5051978;28;20166;-60
2022/04/24 04:34:30;;;;;;;15.27;5.73;;;6.80;99.90;;;;;;5050598;28;20049;-65
2022/04/24 04:36:58;;;;;;;14.68;5.47;;;6.80;99.90;;;;;;5051663;28;20068;-64
2022/04/24 04:39:25;;;;;;;18.27;5.68;;;6.80;99.90;;;;;;5051789;28;20496;-64
2022/04/24 04:41:53;;;;;;;21.67;5.63;;;6.80;99.90;;;;;;5052092;28;20044;-63
2022/04/24 04:44:20;;;;;;;25.55;7.30;;;6.80;99.90;;;;;;5050687;28;20041;-65
2022/04/24 04:46:48;;;;;;;14.90;5.28;;;6.80;99.90;;;;;;5051596;28;20048;-61
2022/04/24 04:49:16;;;;;;;13.68;6.05;;;6.80;99.90;;;;;;5058775;28;20041;-60
2022/04/24 04:51:43;;;;;;;20.83;5.88;;;6.80;99.90;;;;;;5048165;28;20048;-60
2022/04/24 04:54:11;;;;;;;20.13;6.22;;;6.80;99.90;;;;;;5046961;28;20049;-61
2022/04/24 04:56:39;;;;;;;20.90;7.20;;;6.80;99.90;;;;;;5048376;28;20052;-61
2022/04/24 04:59:06;;;;;;;18.92;5.75;;;6.80;99.90;;;;;;5064281;28;20051;-64
2022/04/24 05:01:34;;;;;;;18.23;4.97;;;6.80;99.90;;;;;;5066201;28;20044;-65
2022/04/24 05:04:02;;;;;;;18.48;5.13;;;6.80;99.90;;;;;;5046184;28;20060;-61
2022/04/24 05:06:29;;;;;;;18.58;6.03;;;6.80;99.90;;;;;;5045301;28;20272;-65
2022/04/24 05:08:57;;;;;;;23.63;6.60;;;6.80;99.90;;;;;;5064658;28;20053;-61
2022/04/24 05:11:25;;;;;;;17.05;4.95;;;6.80;99.90;;;;;;5069899;28;20047;-61
2022/04/24 05:13:52;;;;;;;15.43;6.00;;;6.80;99.90;;;;;;5069583;28;20048;-61
2022/04/24 05:16:20;;;;;;;15.32;5.43;;;6.80;99.90;;;;;;5047011;28;20049;-61
2022/04/24 05:18:48;;;;;;;19.23;5.53;;;6.80;99.90;;;;;;5050778;28;20041;-61
2022/04/24 05:21:17;;;;;;;11.63;5.55;;;6.80;99.90;;;;;;5049519;28;20044;-61
2022/04/24 05:23:46;;;;;;;12.83;5.30;;;6.80;99.90;;;;;;5049573;28;20053;-61
2022/04/24 05:26:13;;;;;;;16.57;5.70;;;6.70;99.90;;;;;;5049755;28;20056;-60
2022/04/24 05:28:41;;;;;;;12.30;5.10;;;6.70;99.90;;;;;;5063136;28;20543;-61
2022/04/24 05:31:09;;;;;;;13.48;5.00;;;6.70;99.90;;;;;;5068395;28;20052;-62
2022/04/24 05:33:37;;;;;;;16.00;5.75;;;6.70;99.90;;;;;;5054567;28;20056;-63
2022/04/24 05:36:06;;;;;;;14.80;6.45;;;6.70;99.90;;;;;;5046269;28;20040;-66
2022/04/24 05:38:34;;;;;;;16.60;5.22;;;6.70;99.90;;;;;;5058878;28;20377;-66
2022/04/24 05:41:02;;;;;;;14.30;5.93;;;6.70;99.90;;;;;;5066951;28;20314;-60
2022/04/24 05:43:30;;;;;;;11.82;4.38;;;6.70;99.90;;;;;;5068462;28;20041;-61
2022/04/24 05:45:58;;;;;;;18.67;4.85;;;6.70;99.90;;;;;;5067349;28;20049;-62
2022/04/24 05:48:26;;;;;;;18.02;5.68;;;8.20;99.90;;;;;;5065412;28;20053;-62
2022/04/24 05:50:54;;;;;;;9.15;4.75;;;6.80;99.90;;;;;;5069853;28;20055;-61
2022/04/24 05:53:22;;;;;;;20.38;6.78;;;6.80;99.90;;;;;;5069263;28;20056;-60
2022/04/24 05:55:49;;;;;;;21.20;6.57;;;6.80;99.90;;;;;;5070218;28;20055;-62
2022/04/24 05:58:17;;;;;;;12.95;4.75;;;6.80;99.90;;;;;;5069739;28;20052;-61
2022/04/24 06:00:45;;;;;;;10.93;4.90;;;6.90;99.90;;;;;;5070007;28;20052;-60
2022/04/24 06:03:13;;;;;;;20.05;5.57;;;6.80;99.90;;;;;;5064560;28;20044;-62
2022/04/24 06:05:40;;;;;;;19.02;6.43;;;6.90;99.90;;;;;;5065699;28;20044;-60
2022/04/24 06:08:08;;;;;;;19.05;5.00;;;6.90;99.90;;;;;;5071731;28;20055;-60
2022/04/24 06:10:36;;;;;;;20.63;5.35;;;7.00;99.90;;;;;;5073072;28;20045;-60
2022/04/24 06:13:03;;;;;;;17.17;6.18;;;7.10;99.90;;;;;;5061739;28;20053;-62
2022/04/24 06:15:31;;;;;;;13.07;5.88;;;7.10;99.90;;;;;;5051745;28;20392;-63
2022/04/24 06:17:59;;;;;;;13.00;5.28;;;7.10;99.90;;;;;;5036771;28;20044;-60
2022/04/24 06:20:28;;;;;;;15.98;5.38;;;7.20;99.90;;;;;;5048100;28;20057;-63
2022/04/24 06:22:58;;;;;;;15.60;5.10;;;7.30;99.90;;;;;;5065011;28;20048;-61
2022/04/24 06:25:31;;;;;;;14.18;5.57;;;7.30;99.90;;;;;;5048913;28;20485;-61
2022/04/24 06:28:00;;;;;;;21.65;7.18;;;7.30;99.90;;;;;;5059965;28;20056;-60
2022/04/24 06:30:30;;;;;;;13.48;4.97;;;7.40;99.90;;;;;;5072376;28;20420;-60
2022/04/24 06:32:58;;;;;;;12.70;4.72;;;7.40;99.90;;;;;;5070860;28;20500;-62
2022/04/24 06:35:25;;;;;;;11.32;4.70;;;7.50;99.90;;;;;;5052445;28;20041;-60
2022/04/24 06:37:57;;;;;;;20.38;5.85;;;7.60;99.90;;;;;;5059246;28;20055;-64
2022/04/24 06:40:25;;;;;;;18.48;5.05;;;7.70;99.90;;;;;;5072423;28;20052;-61
2022/04/24 06:42:55;;;;;;;19.40;5.28;;;7.70;99.90;;;;;;5071991;28;20048;-60
2022/04/24 06:45:28;;;;;;;;;;;7.80;99.90;;;;;;5072759;28;20172;-62
2022/04/24 06:47:57;;;;;;;14.80;5.10;;;7.90;99.90;;;;;;5070426;28;19920;-62
2022/04/24 06:50:28;;;;;;;15.82;5.15;;;8.00;99.90;;;;;;5072239;28;20054;-60
2022/04/24 06:53:07;;;;;;;13.40;5.47;;;8.10;99.90;;;;;;5072315;28;20415;-62
2022/04/24 06:55:37;;;;;;;16.97;6.13;;;8.20;99.90;;;;;;5072259;28;20040;-60
2022/04/24 06:58:06;;;;;;;;;;;8.30;99.90;;;;;;5071068;28;20068;-60
2022/04/24 07:00:38;;;;;;;12.55;4.57;;;8.30;99.90;;;;;;5070304;28;19924;-61
2022/04/24 07:03:29;;;;;;;13.65;5.60;;;8.40;99.90;;;;;;5067663;28;20514;-64
2022/04/24 07:05:57;;;;;;;15.40;5.80;;;8.50;99.90;;;;;;5066671;28;20056;-61
2022/04/24 07:08:25;;;;;;;10.93;4.90;;;8.60;99.90;;;;;;5071704;28;20052;-61
2022/04/24 07:10:53;;;;;;;16.85;5.57;;;8.60;99.90;;;;;;5071723;28;20056;-60
2022/04/24 07:13:22;;;;;;;16.38;4.65;;;8.70;99.90;;;;;;5071635;28;20044;-60
2022/04/24 07:15:50;;;;;;;13.35;4.90;;;8.80;99.90;;;;;;5064941;28;20033;-61
2022/04/24 07:18:18;;;;;;;14.88;5.03;;;8.90;99.90;;;;;;5057176;28;20056;-63
2022/04/24 07:20:46;;;;;;;14.15;5.07;;;8.90;99.90;;;;;;5048321;28;20045;-61
2022/04/24 07:23:13;;;;;;;14.77;4.72;;;9.00;99.90;;;;;;5048533;28;20041;-62
2022/04/24 07:25:46;;;;;;;12.75;4.30;;;9.10;99.90;;;;;;5051542;28;20045;-60
2022/04/24 07:28:18;;;;;;;9.18;4.53;;;9.20;99.90;;;;;;5060863;28;20052;-62
2022/04/24 07:30:46;;;;;;;15.13;4.82;;;9.30;99.90;;;;;;5070239;28;20045;-60
2022/04/24 07:33:14;;;;;;;13.85;6.00;;;9.30;99.90;;;;;;5070044;28;20055;-61
2022/04/24 07:35:42;;;;;;;16.38;4.93;;;9.40;99.90;;;;;;5051654;28;20040;-62
2022/04/24 07:38:10;;;;;;;10.13;4.25;;;9.50;99.90;;;;;;5058739;28;20531;-61
2022/04/24 07:40:39;;;;;;;12.20;4.53;;;9.50;99.90;;;;;;5071196;28;20044;-64
2022/04/24 07:43:09;;;;;;;12.15;4.57;;;9.60;99.90;;;;;;5069861;28;20045;-63
2022/04/24 07:45:47;;;;;;;16.53;4.97;;;9.70;99.90;;;;;;5066801;28;20044;-61
2022/04/24 07:48:17;;;;;;;12.93;4.50;;;9.80;99.90;;;;;;5070589;28;20301;-64
2022/04/24 07:50:47;;;;;;;16.17;5.80;;;9.80;99.90;;;;;;5069832;28;20045;-60
2022/04/24 07:53:16;;;;;;;16.98;4.85;;;9.90;99.90;;;;;;5069714;28;20048;-58
2022/04/24 07:55:45;;;;;;;15.25;4.68;;;10.00;99.90;;;;;;5069738;28;20052;-59
2022/04/24 07:58:14;;;;;;;15.32;5.03;;;10.00;99.90;;;;;;5069403;28;20041;-59
2022/04/24 08:00:44;;;;;;;12.10;4.78;;;10.10;99.90;;;;;;5066058;28;20430;-60
2022/04/24 08:03:14;;;;;;;11.75;4.43;;;10.20;99.90;;;;;;5069519;28;20044;-59
2022/04/24 08:05:44;;;;;;;10.30;5.18;;;10.30;99.90;;;;;;5064841;28;20056;-64
2022/04/24 08:08:20;;;;;;;13.52;4.95;;;10.30;99.90;;;;;;5053001;28;20033;-63
2022/04/24 08:10:53;;;;;;;12.75;4.55;;;10.40;99.90;;;;;;5050823;28;20049;-62
2022/04/24 08:13:22;;;;;;;12.38;4.40;;;10.50;99.90;;;;;;5050447;28;20045;-62
2022/04/24 08:15:50;;;;;;;10.73;4.60;;;10.60;99.90;;;;;;5049318;28;20557;-61
2022/04/24 08:18:18;;;;;;;12.85;4.53;;;10.70;99.90;;;;;;5058923;28;20529;-60
2022/04/24 08:20:46;;;;;;;13.05;5.30;;;10.70;99.90;;;;;;5052828;28;20051;-59
2022/04/24 08:23:16;;;;;;;12.38;4.13;;;10.80;99.90;;;;;;5050906;28;20060;-59
2022/04/24 08:25:45;;;;;;;12.57;4.20;;;10.90;99.90;;;;;;5056087;28;20044;-62
2022/04/24 08:28:14;;;;;;;12.48;4.07;;;11.00;99.90;;;;;;5069852;28;20049;-60
2022/04/24 08:30:44;;;;;;;11.68;4.60;;;11.10;99.90;;;;;;5068952;28;20384;-60
2022/04/24 08:33:12;;;;;;;13.80;4.72;;;11.20;99.90;;;;;;5052281;28;20045;-64
2022/04/24 08:35:40;;;;;;;9.70;5.05;;;11.30;99.90;;;;;;5049219;28;20435;-59
2022/04/24 08:38:08;;;;;;;10.63;4.63;;;11.40;99.90;;;;;;5058403;28;20487;-60
2022/04/24 08:40:36;;;;;;;15.23;4.53;;;11.40;99.90;;;;;;5069939;28;20067;-59
2022/04/24 08:43:03;;;;;;;10.15;3.75;;;11.50;99.90;;;;;;5068908;28;20045;-59
2022/04/24 08:45:33;;;;;;;16.42;4.90;;;11.60;99.90;;;;;;5061685;28;20373;-59
2022/04/24 08:48:04;;;;;;;;;;;11.70;99.90;;;;;;5024048;28;20067;-60
2022/04/24 08:50:33;;;;;;;7.05;3.67;;;11.80;99.90;;;;;;5062732;28;19920;-60
2022/04/24 08:53:01;;;;;;;7.53;3.78;;;11.80;99.90;;;;;;5065703;28;20210;-61
2022/04/24 08:55:31;;;;;;;11.77;3.88;;;11.90;99.90;;;;;;5049876;28;20052;-62
2022/04/24 08:57:59;;;;;;;6.38;3.28;;;12.00;99.90;;;;;;5055787;28;20510;-59
2022/04/24 09:00:29;;;;;;;8.02;3.60;;;12.10;99.90;;;;;;5069729;28;20055;-60
2022/04/24 09:02:58;;;;;;;8.00;4.00;;;12.10;99.90;;;;;;5068748;28;20051;-60
2022/04/24 09:05:31;;;;;;;7.67;3.10;;;12.20;99.90;;;;;;5062449;28;20057;-59
2022/04/24 09:08:06;;;;;;;8.55;3.88;;;12.30;99.90;;;;;;5054740;28;20294;-61
2022/04/24 09:10:58;;;;;;;7.38;2.60;;;12.30;99.90;;;;;;5067163;28;20040;-59
2022/04/24 09:14:14;;;;;;;7.35;3.08;;;12.40;99.90;;;;;;5066953;28;20057;-59
2022/04/24 09:16:35;;;;;;;6.80;2.83;;;12.40;99.90;;;;;;5063616;28;20048;-60
2022/04/24 09:19:23;;;;;;;8.95;3.60;;;12.40;99.90;;;;;;5060820;28;20562;-61
2022/04/24 09:21:53;;;;;;;10.18;3.53;;;12.50;99.90;;;;;;5049589;28;20049;-60
2022/04/24 09:24:20;;;;;;;8.57;3.90;;;12.50;99.90;;;;;;5050720;28;20049;-60
2022/04/24 09:26:55;;;;;;;7.95;3.08;;;12.60;99.90;;;;;;5053193;28;20045;-61
2022/04/24 09:29:23;;;;;;;6.88;2.92;;;12.60;99.90;;;;;;5071922;28;20048;-60
2022/04/24 09:31:52;;;;;;;9.70;3.90;;;12.80;99.90;;;;;;5072346;28;20392;-60
2022/04/24 09:34:21;;;;;;;11.30;3.53;;;12.90;99.90;;;;;;5069406;28;20598;-60
2022/04/24 09:37:03;;;;;;;5.20;3.13;;;13.10;99.90;;;;;;5069714;28;20037;-61
2022/04/24 09:39:32;;;;;;;10.48;3.40;;;13.20;99.90;;;;;;5069950;28;20048;-62
2022/04/24 09:42:08;;;;;;;8.10;3.03;;;13.40;99.90;;;;;;5073543;28;20051;-60
2022/04/24 09:45:02;;;;;;;9.93;3.00;;;13.50;99.90;;;;;;5073333;28;20044;-61
2022/04/24 09:47:58;;;;;;;10.30;3.20;;;13.70;99.90;;;;;;5058443;28;20045;-61
2022/04/24 09:50:30;;;;;;;6.40;2.47;;;13.90;99.90;;;;;;5061960;28;20068;-62
2022/04/24 09:52:59;;;;;;;5.93;2.65;;;14.00;99.20;;;;;;5068586;28;20048;-61
2022/04/24 09:55:27;;;;;;;7.13;2.70;;;14.10;99.20;;;;;;5051948;28;20049;-63
2022/04/24 09:58:02;;;;;;;5.28;2.50;;;14.10;98.50;;;;;;5061026;28;20518;-61
2022/04/24 10:00:31;;;;;;;9.18;2.58;;;14.10;97.90;;;;;;5073040;28;20041;-60
2022/04/24 10:03:01;;;;;;;10.23;3.10;;;14.00;97.10;;;;;;5072998;28;20055;-60
2022/04/24 10:05:30;;;;;;;7.75;2.58;;;13.90;97.10;;;;;;5065803;28;20041;-60
2022/04/24 10:08:04;;;;;;;5.72;2.55;;;13.80;97.60;;;;;;5059766;28;20048;-60
2022/04/24 10:10:32;;;;;;;6.57;3.03;;;13.70;97.10;;;;;;5067958;28;20060;-60
2022/04/24 10:13:06;;;;;;;12.55;2.90;;;13.70;97.10;;;;;;5058200;28;20401;-58
2022/04/24 10:15:36;;;;;;;8.40;2.65;;;13.70;97.70;;;;;;5068599;28;20044;-61
2022/04/24 10:18:44;;;;;;;13.15;2.65;;;13.90;97.60;;;;;;5071234;28;20119;-60
2022/04/24 10:21:27;;;;;;;11.40;3.33;;;14.10;97.60;;;;;;5062091;28;20063;-62
2022/04/24 10:24:07;;;;;;;12.45;2.40;;;14.30;97.10;;;;;;5064284;28;20519;-59
2022/04/24 10:26:35;;;;;;;8.00;2.60;;;14.60;96.80;;;;;;5074932;28;20056;-59
2022/04/24 10:29:10;;;;;;;7.47;2.15;;;14.80;96.30;;;;;;5072368;28;20060;-62
2022/04/24 10:31:43;;;;;;;4.95;2.10;;;15.00;96.00;;;;;;5054700;28;20045;-63
2022/04/24 10:34:13;;;;;;;8.07;2.08;;;15.20;93.50;;;;;;5055882;28;20032;-61
2022/04/24 10:36:55;;;;;;;;;;;15.30;93.20;;;;;;5066237;28;20480;-67
2022/04/24 10:39:29;;;;;;;5.25;1.63;;;15.40;92.60;;;;;;5053109;28;19920;-62
2022/04/24 10:42:28;;;;;;;5.65;1.77;;;15.50;92.10;;;;;;5053234;28;20066;-61
2022/04/24 10:45:03;;;;;;;5.70;1.80;;;15.70;91.10;;;;;;5052138;28;20052;-62
2022/04/24 10:47:49;;;;;;;5.57;1.67;;;15.90;90.70;;;;;;5062403;28;20415;-61
2022/04/24 10:50:20;;;;;;;3.25;1.20;;;16.20;90.30;;;;;;5062423;28;20055;-61
2022/04/24 10:52:53;;;;;;;6.00;1.70;;;16.30;88.80;;;;;;5055943;28;20037;-67
2022/04/24 10:55:26;;;;;;;5.68;1.55;;;16.40;87.20;;;;;;5052184;28;20396;-62
2022/04/24 10:58:00;;;;;;;6.68;2.17;;;16.40;86.90;;;;;;5056882;28;20541;-65
2022/04/24 11:00:34;;;;;;;6.53;1.52;;;16.20;84.70;;;;;;5058946;28;20053;-61
2022/04/24 11:03:07;;;;;;;7.22;1.48;;;16.10;84.50;;;;;;5048458;28;20045;-61
2022/04/24 11:05:43;;;;;;;4.20;1.40;;;15.90;84.70;;;;;;5048904;28;20053;-60
2022/04/24 11:08:18;;;;;;;5.82;1.50;;;15.90;85.80;;;;;;5060001;28;20048;-60
2022/04/24 11:10:47;;;;;;;3.75;1.27;;;15.90;84.00;;;;;;5065837;28;20115;-60
2022/04/24 11:13:17;;;;;;;8.80;2.85;;;15.80;83.80;;;;;;5054216;28;20354;-61
2022/04/24 11:15:47;;;;;;;;;;;15.70;83.60;;;;;;5057811;28;20053;-62
2022/04/24 11:18:25;;;;;;;3.43;1.70;;;15.70;83.80;;;;;;5060958;28;19924;-60
2022/04/24 11:20:57;;;;;;;3.47;1.20;;;15.80;84.20;;;;;;5051967;28;20071;-62
2022/04/24 11:23:26;;;;;;;5.15;1.35;;;15.90;82.30;;;;;;5062306;28;20136;-64
2022/04/24 11:25:56;;;;;;;6.65;1.38;;;16.00;81.70;;;;;;5067096;28;20061;-62
2022/04/24 11:28:53;;;;;;;4.47;1.40;;;16.00;81.20;;;;;;5054830;28;20037;-63
2022/04/24 11:31:22;;;;;;;6.00;1.80;;;16.00;80.10;;;;;;5041522;28;20057;-63
2022/04/24 11:33:57;;;;;;;6.13;1.33;;;16.10;81.40;;;;;;5048274;28;20052;-65
2022/04/24 11:36:31;;;;;;;4.03;1.20;;;16.20;80.90;;;;;;5030523;28;20068;-61
2022/04/24 11:39:03;;;;;;;5.60;1.45;;;16.50;81.10;;;;;;5038681;28;20068;-62
2022/04/24 11:41:32;;;;;;;7.38;1.40;;;16.60;79.90;;;;;;5060750;28;20075;-61
2022/04/24 11:50:15;;;;;;;5.90;1.23;;;17.20;78.90;;;;;;5065838;28;20052;-64
2022/04/24 11:53:03;;;;;;;2.88;1.00;;;17.70;75.00;;;;;;5065153;28;20037;-62
2022/04/24 11:58:22;;;;;;;3.33;1.10;;;18.60;73.60;;;;;;5056107;28;20037;-62
2022/04/24 12:00:50;;;;;;;6.60;1.35;;;19.10;69.60;;;;;;5047493;28;20051;-62
2022/04/24 12:03:20;;;;;;;4.38;1.70;;;19.40;70.00;;;;;;5046018;28;20045;-63
2022/04/24 12:05:58;;;;;;;8.75;1.95;;;19.60;66.50;;;;;;5047188;28;20045;-61
2022/04/24 12:08:44;;;;;;;5.32;1.55;;;19.90;64.60;;;;;;5057289;28;20044;-61
2022/04/24 12:11:30;;;;;;;4.30;1.20;;;20.10;62.80;;;;;;5067330;28;20051;-61
2022/04/24 12:14:08;;;;;;;5.20;1.73;;;20.30;62.00;;;;;;5062779;28;20044;-61
2022/04/24 12:16:37;;;;;;;5.68;1.40;;;20.50;61.10;;;;;;5047294;28;20479;-62
2022/04/24 12:19:06;;;;;;;6.40;1.50;;;20.60;61.20;;;;;;5062229;28;20048;-65
2022/04/24 12:21:48;;;;;;;7.18;1.70;;;20.80;60.80;;;;;;5067254;28;20047;-68
2022/04/24 12:24:18;;;;;;;4.22;1.35;;;20.90;59.40;;;;;;5067080;28;20052;-66
2022/04/24 12:26:50;;;;;;;3.78;1.38;;;21.00;59.80;;;;;;5067132;28;20040;-63
2022/04/24 12:29:19;;;;;;;3.30;1.27;;;21.00;58.50;;;;;;5060432;28;20048;-63
2022/04/24 12:31:48;;;;;;;5.15;1.80;;;20.80;58.30;;;;;;5047018;28;20469;-65
2022/04/24 12:34:16;;;;;;;7.20;1.42;;;20.50;58.60;;;;;;5047153;28;20381;-63
2022/04/24 12:36:48;;;;;;;5.47;1.63;;;20.50;60.00;;;;;;5047460;28;20041;-60
2022/04/24 12:39:24;;;;;;;6.93;1.88;;;20.80;58.90;;;;;;5063206;28;20527;-62
2022/04/24 12:41:52;;;;;;;3.72;1.40;;;21.10;59.10;;;;;;5065514;28;20056;-64
2022/04/24 12:44:20;;;;;;;2.88;1.20;;;21.50;57.50;;;;;;5061213;28;20056;-60
2022/04/24 12:46:54;;;;;;;4.90;1.48;;;21.80;56.60;;;;;;5045566;28;20311;-60
2022/04/24 12:49:29;;;;;;;4.88;1.75;;;22.10;56.70;;;;;;5063975;28;20574;-62
2022/04/24 12:51:58;;;;;;;4.90;1.50;;;22.00;56.10;;;;;;5066585;28;20056;-60
2022/04/24 12:54:26;;;;;;;5.20;1.40;;;21.60;56.50;;;;;;5066513;28;20051;-61
2022/04/24 12:56:54;;;;;;;3.45;1.55;;;21.00;57.60;;;;;;5067424;28;20052;-63
2022/04/24 12:59:22;;;;;;;5.80;1.70;;;20.50;58.00;;;;;;5062081;28;20036;-61
2022/04/24 13:01:51;;;;;;;5.18;1.55;;;20.20;57.70;;;;;;5046962;28;20037;-60
2022/04/24 13:04:21;;;;;;;4.57;1.30;;;20.00;58.50;;;;;;5048351;28;20056;-62
2022/04/24 13:06:49;;;;;;;5.15;1.35;;;20.30;59.50;;;;;;5049830;28;20045;-61
2022/04/24 13:09:27;;;;;;;6.60;1.50;;;20.90;59.20;;;;;;5065088;28;20041;-62
2022/04/24 13:11:55;;;;;;;6.32;1.83;;;21.40;56.20;;;;;;5059542;28;20045;-61
2022/04/24 13:14:23;;;;;;;5.13;1.50;;;21.40;56.40;;;;;;5055219;28;20463;-61